Time;durP1;ratioP1;P1;durP2;ratioP2;P2;SDS_P1;SDS_P2;PMS_P1;PMS_P2;Temp;Humidity;BMP_temperature;BMP_pressure;BME280_temperature;BME280_humidity;BME280_pressure;Samples;Min_cycle;Max_cycle;Signal;HPM_P1;HPM_P2
2024/02/26 00:01:15;;;;;;;;;6.50;5.00;;;;;17.01;57.79;100172.06;146618;660;46020;-72
2024/02/26 00:04:16;;;;;;;;;5.00;3.50;;;;;17.01;57.23;100166.81;146619;666;46012;-76
2024/02/26 00:07:12;;;;;;;;;4.67;4.67;;;;;17.02;56.05;100165.09;146625;622;46011;-76
2024/02/26 00:10:06;;;;;;;;;5.00;3.00;;;;;17.03;56.80;100169.47;146619;711;46007;-78
2024/02/26 00:13:02;;;;;;;;;5.50;3.25;;;;;17.03;55.07;100157.25;146618;683;46026;-76
2024/02/26 00:16:08;;;;;;;;;2.33;2.00;;;;;17.05;54.94;100152.91;146621;581;46920;-77
2024/02/26 00:19:06;;;;;;;;;2.33;2.33;;;;;17.05;55.60;100157.28;146623;609;46012;-73
2024/02/26 00:21:58;;;;;;;;;4.67;2.33;;;;;17.02;54.28;100150.25;146619;606;47013;-74
2024/02/26 00:24:55;;;;;;;;;4.67;3.33;;;;;17.05;53.11;100142.44;146619;565;46020;-75
2024/02/26 00:27:51;;;;;;;;;3.67;3.67;;;;;17.07;53.80;100138.13;146618;615;46015;-73
2024/02/26 00:30:58;;;;;;;;;3.33;3.00;;;;;17.05;53.99;100120.59;146619;649;46020;-70
2024/02/26 00:34:06;;;;;;;;;4.75;3.00;;;;;17.05;55.41;100126.72;146618;606;46016;-70
2024/02/26 00:37:20;;;;;;;;;;;;;;;;;;;;;
2024/02/26 00:40:36;;;;;;;;;6.33;3.00;;;;;17.03;54.11;100112.72;146617;563;46014;-69
2024/02/26 00:43:39;;;;;;;;;7.00;4.00;;;;;17.03;53.77;100109.22;146620;606;47010;-68
2024/02/26 00:46:35;;;;;;;;;4.67;4.33;;;;;17.00;52.69;100102.19;146620;566;46915;-68
2024/02/26 00:49:43;;;;;;;;;5.00;4.00;;;;;13.30;51.38;99480.13;146623;614;46010;-69
2024/02/26 00:53:06;;;;;;;;;9.67;4.00;;;;;16.98;51.77;100092.56;146620;570;46914;-71
2024/02/26 00:56:16;;;;;;;;;10.33;5.00;;;;;17.01;51.65;100109.22;146623;671;46021;-67
2024/02/26 00:59:31;;;;;;;;;7.50;4.25;;;;;17.04;51.54;100137.16;146617;582;46016;-66
2024/02/26 01:02:43;;;;;;;;;5.67;4.00;;;;;17.03;52.22;100094.37;146613;570;46879;-66
2024/02/26 01:05:41;;;;;;;;;6.50;5.00;;;;;17.02;52.30;100100.47;146615;564;47013;-69
2024/02/26 01:08:50;;;;;;;;;5.75;4.00;;;;;17.03;53.46;100083.91;146619;715;46010;-71
2024/02/26 01:11:52;;;;;;;;;8.75;6.00;;;;;16.94;54.95;100057.56;146618;564;46016;-71
2024/02/26 01:14:47;;;;;;;;;8.50;4.75;;;;;17.01;54.54;100072.53;146613;569;47020;-70
2024/02/26 01:18:00;;;;;;;;;5.00;3.33;;;;;13.16;55.61;99436.47;146619;565;46016;-72
2024/02/26 01:20:57;;;;;;;;;5.33;3.67;;;;;16.90;55.51;100068.88;146620;652;46020;-69
2024/02/26 01:23:57;;;;;;;;;5.67;5.33;;;;;16.88;55.48;100073.19;146618;624;46012;-69
2024/02/26 01:27:19;;;;;;;;;4.67;3.33;;;;;16.90;54.46;100083.72;146622;634;46021;-68
2024/02/26 01:30:23;;;;;;;;;13.50;6.75;;;;;16.89;55.58;100080.22;146611;706;46016;-71
2024/02/26 01:33:24;;;;;;;;;6.33;4.67;;;;;16.91;56.20;100095.94;146620;579;46020;-70
2024/02/26 01:36:21;;;;;;;;;10.00;7.00;;;;;16.90;58.33;100084.59;146619;579;46033;-78
2024/02/26 01:39:23;;;;;;;;;4.33;3.00;;;;;16.73;62.78;100081.69;146623;622;46010;-81
2024/02/26 01:42:25;;;;;;;;;4.25;3.25;;;;;16.65;63.27;100079.78;146619;635;46013;-80
2024/02/26 01:45:24;;;;;;;;;6.50;3.50;;;;;16.50;64.54;100076.03;146622;578;46010;-80
2024/02/26 01:48:33;;;;;;;;;5.75;5.25;;;;;16.42;63.16;100079.38;146619;599;46028;-83
2024/02/26 01:51:29;;;;;;;;;2.00;0.00;;;;;16.34;63.18;100077.53;146624;631;46010;-78
2024/02/26 01:54:27;;;;;;;;;6.00;4.00;;;;;16.30;63.57;100065.25;146617;569;46014;-77
2024/02/26 01:57:22;;;;;;;;;5.50;4.50;;;;;16.28;64.95;100066.06;146621;606;46021;-74
2024/02/26 02:00:31;;;;;;;;;5.00;3.33;;;;;16.20;65.84;100058.09;146617;682;46016;-77
2024/02/26 02:03:36;;;;;;;;;4.00;3.00;;;;;16.15;65.57;100050.16;146619;604;46020;-78
2024/02/26 02:06:42;;;;;;;;;;;;;;;;;;;;;
2024/02/26 02:09:57;;;;;;;;;5.00;4.00;;;;;16.06;68.55;100042.16;146622;632;46022;-74
2024/02/26 02:12:54;;;;;;;;;9.25;4.50;;;;;15.99;70.02;100037.66;146617;691;46012;-72
2024/02/26 02:16:07;;;;;;;;;4.00;4.00;;;;;15.94;71.40;100062.84;146623;636;46012;-72
2024/02/26 02:19:11;;;;;;;;;1.00;0.00;;;;;15.83;68.96;100088.78;146613;601;47017;-72
2024/02/26 02:22:15;;;;;;;;;0.00;0.00;;;;;15.55;67.86;100096.88;146623;611;46020;-75
2024/02/26 02:25:14;;;;;;;;;1.00;0.00;;;;;15.28;68.10;100094.56;146618;591;46913;-72
2024/02/26 02:28:11;;;;;;;;;0.67;0.00;;;;;14.88;71.22;100057.09;146621;633;46021;-69
2024/02/26 02:31:24;;;;;;;;;0.00;0.00;;;;;14.83;71.65;100090.03;146620;569;46016;-71
2024/02/26 02:34:22;;;;;;;;;1.00;0.33;;;;;14.65;73.40;100100.91;146616;640;46021;-71
2024/02/26 02:37:28;;;;;;;;;0.67;0.00;;;;;14.57;70.50;100100.72;146619;569;46016;-68
2024/02/26 02:40:28;;;;;;;;;0.67;0.00;;;;;14.44;77.49;100098.59;146624;694;46010;-68
2024/02/26 02:43:26;;;;;;;;;0.67;0.00;;;;;14.33;74.57;100103.56;146617;657;46016;-67
2024/02/26 02:46:30;;;;;;;;;0.00;0.00;;;;;14.28;75.73;100112.97;146621;637;45025;-68
2024/02/26 02:49:44;;;;;;;;;3.00;3.00;;;;;14.25;75.26;100092.91;146620;569;46017;-68
2024/02/26 02:52:37;;;;;;;;;1.75;1.00;;;;;14.28;76.28;100098.22;146620;596;46020;-68
2024/02/26 02:55:50;;;;;;;;;3.25;0.25;;;;;14.24;75.50;100112.03;146617;612;46013;-68
2024/02/26 02:58:45;;;;;;;;;2.25;1.00;;;;;14.14;77.74;100125.63;146623;563;46020;-66
2024/02/26 03:01:37;;;;;;;;;1.00;0.00;;;;;14.09;77.94;100106.41;146618;570;46012;-70
2024/02/26 03:04:33;;;;;;;;;1.25;0.25;;;;;14.09;76.38;100107.28;146617;564;46021;-71
2024/02/26 03:07:54;;;;;;;;;2.00;0.33;;;;;14.13;72.97;100103.03;146622;572;46012;-70
2024/02/26 03:10:58;;;;;;;;;2.00;1.00;;;;;14.15;76.20;100121.31;146623;578;46020;-71
2024/02/26 03:14:20;;;;;;;;;0.00;0.00;;;;;14.09;77.62;100120.31;146622;594;46012;-72
2024/02/26 03:17:16;;;;;;;;;2.00;1.00;;;;;14.09;76.77;100116.81;146617;639;46010;-72
2024/02/26 03:20:19;;;;;;;;;5.00;1.25;;;;;11.26;79.55;99638.59;146617;576;46913;-71
2024/02/26 03:23:20;;;;;;;;;1.33;1.00;;;;;13.97;80.56;100119.09;146625;603;46012;-68
2024/02/26 03:26:14;;;;;;;;;19.25;16.75;;;;;13.93;79.28;100106.81;146618;606;47013;-69
2024/02/26 03:29:13;;;;;;;;;0.00;0.00;;;;;13.91;81.07;100105.88;146616;586;47012;-69
2024/02/26 03:32:08;;;;;;;;;2.00;1.00;;;;;13.85;81.22;100103.97;146618;567;46016;-70
2024/02/26 03:35:16;;;;;;;;;2.00;1.00;;;;;13.78;82.18;100096.84;146619;681;46010;-69
2024/02/26 03:38:17;;;;;;;;;2.33;1.67;;;;;13.77;79.97;100100.28;146619;574;46016;-69
2024/02/26 03:41:15;;;;;;;;;3.00;0.00;;;;;13.76;81.21;100093.31;146624;575;45021;-68
2024/02/26 03:44:23;;;;;;;;;3.00;1.00;;;;;13.77;79.15;100082.03;146620;596;46012;-68
2024/02/26 03:47:20;;;;;;;;;1.67;1.00;;;;;13.75;77.15;100068.09;146623;643;46010;-70
2024/02/26 03:50:22;;;;;;;;;2.00;1.75;;;;;13.91;76.79;100072.88;146617;580;46017;-69
2024/02/26 03:53:30;;;;;;;;;4.00;3.00;;;;;10.16;75.65;99416.50;146615;566;46020;-71
2024/02/26 03:56:23;;;;;;;;;2.25;1.25;;;;;14.10;76.58;100059.50;146619;569;46013;-69
2024/02/26 03:59:19;;;;;;;;;5.25;3.00;;;;;14.19;75.20;100065.81;146623;595;46010;-72
2024/02/26 04:02:26;;;;;;;;;3.00;2.00;;;;;14.23;74.70;100060.69;146617;581;46016;-73
2024/02/26 04:05:37;;;;;;;;;4.75;2.50;;;;;14.30;74.11;100049.59;146621;618;45021;-73
2024/02/26 04:08:33;;;;;;;;;6.25;3.00;;;;;14.35;74.81;100052.31;146616;649;46016;-73
2024/02/26 04:11:25;;;;;;;;;5.75;3.75;;;;;14.30;76.28;100043.50;146622;684;46010;-74
2024/02/26 04:14:21;;;;;;;;;6.25;3.75;;;;;14.23;72.72;100047.66;146618;618;46014;-68
2024/02/26 04:17:25;;;;;;;;;7.00;4.75;;;;;14.22;73.23;100043.28;146622;640;46011;-69
2024/02/26 04:20:29;;;;;;;;;3.00;2.50;;;;;14.27;72.37;100053.84;146616;670;46016;-71
2024/02/26 04:23:28;;;;;;;;;1.50;1.00;;;;;14.27;73.50;100057.34;146625;577;46010;-73
2024/02/26 04:26:29;;;;;;;;;1.25;1.25;;;;;14.21;76.12;100067.63;146621;632;45017;-73
2024/02/26 04:29:25;;;;;;;;;4.50;2.75;;;;;14.16;74.97;100060.50;146622;564;46010;-72
2024/02/26 04:32:22;;;;;;;;;2.00;1.50;;;;;14.15;74.77;100059.62;146619;641;47012;-72
2024/02/26 04:35:30;;;;;;;;;5.50;3.50;;;;;14.16;73.93;100058.78;146620;575;46012;-74
2024/02/26 04:38:30;;;;;;;;;4.75;3.75;;;;;14.23;74.08;100065.03;146618;575;47012;-73
2024/02/26 04:41:30;;;;;;;;;3.75;1.25;;;;;14.27;73.52;100065.16;146621;573;46010;-68
2024/02/26 04:44:27;;;;;;;;;4.00;2.50;;;;;14.31;73.90;100055.69;146621;649;46012;-69
2024/02/26 04:47:31;;;;;;;;;3.00;3.00;;;;;12.50;73.36;99730.59;146621;578;46012;-68
2024/02/26 04:50:34;;;;;;;;;12.25;11.00;;;;;14.40;73.68;100049.81;146615;638;47030;-70
2024/02/26 04:53:29;;;;;;;;;11.75;10.25;;;;;14.43;73.78;100056.00;146617;650;46020;-68
2024/02/26 04:56:30;;;;;;;;;10.00;9.75;;;;;14.45;73.33;100051.69;146614;565;46017;-70
2024/02/26 04:59:27;;;;;;;;;12.75;10.75;;;;;14.48;73.75;100053.50;146620;579;46010;-69
2024/02/26 05:02:21;;;;;;;;;19.00;11.75;;;;;13.92;73.73;99948.66;146614;565;46017;-71
2024/02/26 05:05:19;;;;;;;;;19.00;16.25;;;;;14.48;73.92;100045.66;146613;630;46010;-66
2024/02/26 05:08:20;;;;;;;;;21.75;19.25;;;;;14.49;73.68;100047.44;146616;583;46916;-70
2024/02/26 05:11:18;;;;;;;;;19.00;17.00;;;;;14.47;74.46;100056.94;146611;573;47010;-74
2024/02/26 05:14:28;;;;;;;;;14.50;12.00;;;;;14.40;73.79;100055.94;146614;593;46912;-73
2024/02/26 05:17:34;;;;;;;;;11.75;10.00;;;;;14.32;74.37;100060.06;146619;643;46020;-74
2024/02/26 05:20:35;;;;;;;;;12.25;10.25;;;;;14.24;74.37;100067.69;146616;582;46012;-75
2024/02/26 05:23:33;;;;;;;;;18.00;15.00;;;;;14.21;76.03;100070.22;146618;569;46012;-75
2024/02/26 05:26:26;;;;;;;;;17.25;15.00;;;;;14.15;75.50;100064.84;146615;597;46912;-74
2024/02/26 05:29:48;;;;;;;;;16.50;14.50;;;;;14.21;74.65;100079.78;146616;582;46020;-67
2024/02/26 05:32:48;;;;;;;;;13.75;10.00;;;;;14.24;75.15;100074.63;146612;577;46017;-74
2024/02/26 05:35:53;;;;;;;;;8.25;8.00;;;;;11.97;74.74;99746.41;146616;582;46046;-73
2024/02/26 05:38:51;;;;;;;;;11.25;8.25;;;;;14.30;76.21;100075.69;146614;609;47012;-73
2024/02/26 05:41:48;;;;;;;;;15.00;10.00;;;;;14.33;77.57;100064.44;146617;573;47020;-75
2024/02/26 05:44:45;;;;;;;;;5.50;5.25;;;;;14.33;77.04;100074.87;146614;621;46016;-71
2024/02/26 05:47:49;;;;;;;;;11.25;6.50;;;;;14.31;77.21;100089.59;146619;574;47021;-73
2024/02/26 05:50:49;;;;;;;;;11.25;8.00;;;;;14.30;76.16;100101.75;146620;630;46012;-73
2024/02/26 05:54:09;;;;;;;;;48.25;39.00;;;;;14.31;75.85;100102.63;146615;606;46022;-74
2024/02/26 05:57:02;;;;;;;;;24.50;23.75;;;;;14.33;76.11;100106.19;146609;644;47016;-72
2024/02/26 06:00:00;;;;;;;;;15.25;12.00;;;;;14.32;76.51;100110.47;146609;563;46912;-73
2024/02/26 06:03:00;;;;;;;;;12.75;9.50;;;;;14.32;77.46;100122.66;146632;571;45016;-73
2024/02/26 06:05:55;;;;;;;;;11.00;10.50;;;;;14.30;77.10;100133.03;146633;608;46012;-72
2024/02/26 06:08:50;;;;;;;;;9.50;9.00;;;;;14.28;78.17;100136.44;146632;601;46012;-71
2024/02/26 06:11:52;;;;;;;;;32.75;30.00;;;;;14.26;75.87;100143.34;146635;643;45010;-70
2024/02/26 06:15:00;;;;;;;;;30.50;28.75;;;;;14.25;75.29;100141.59;146633;564;45017;-70
2024/02/26 06:18:00;;;;;;;;;30.75;27.50;;;;;14.28;76.71;100136.44;146633;604;45020;-71
2024/02/26 06:21:06;;;;;;;;;27.50;26.25;;;;;14.31;76.45;100147.84;146633;622;45014;-69
2024/02/26 06:24:20;;;;;;;;;24.25;22.50;;;;;14.37;76.75;100146.25;146626;584;46012;-69
2024/02/26 06:27:22;;;;;;;;;66.50;51.50;;;;;14.38;76.08;100148.00;146631;575;46014;-69
2024/02/26 06:30:32;;;;;;;;;63.75;47.50;;;;;14.39;76.46;100142.84;146635;600;45021;-69
2024/02/26 06:33:29;;;;;;;;;39.50;31.25;;;;;14.42;77.00;100134.19;146631;612;46012;-71
2024/02/26 06:36:32;;;;;;;;;25.00;25.00;;;;;14.47;76.09;100141.31;146632;587;45020;-70
2024/02/26 06:39:32;;;;;;;;;21.75;20.25;;;;;14.48;76.97;100132.63;146631;579;46012;-71
2024/02/26 06:42:29;;;;;;;;;14.00;13.00;;;;;14.52;76.80;100134.53;146636;641;46020;-71
2024/02/26 06:45:22;;;;;;;;;36.75;28.50;;;;;14.59;77.08;100151.22;146634;571;45017;-70
2024/02/26 06:48:19;;;;;;;;;69.75;53.75;;;;;14.63;76.74;100158.28;146633;687;45020;-71
2024/02/26 06:51:18;;;;;;;;;41.25;31.25;;;;;14.61;77.21;100167.81;146633;698;46914;-69
2024/02/26 06:54:13;;;;;;;;;24.00;21.75;;;;;14.58;78.92;100172.94;146631;635;46010;-70
2024/02/26 06:57:13;;;;;;;;;26.50;22.50;;;;;12.88;77.96;99886.81;146639;665;45012;-70
2024/02/26 07:00:14;;;;;;;;;21.50;18.50;;;;;14.62;78.35;100182.59;146637;606;44021;-69
2024/02/26 07:03:13;;;;;;;;;16.50;15.00;;;;;14.67;78.47;100175.78;146618;563;45016;-71
2024/02/26 07:06:13;;;;;;;;;16.00;13.50;;;;;13.17;78.29;99892.84;146620;602;46010;-71
2024/02/26 07:09:17;;;;;;;;;20.25;17.00;;;;;14.51;78.82;100101.44;146615;585;46014;-83
2024/02/26 07:12:15;;;;;;;;;22.25;21.50;;;;;15.10;79.30;100169.00;146618;661;47012;-81
2024/02/26 07:15:12;;;;;;;;;12.25;11.00;;;;;15.23;79.19;100181.53;146618;569;46013;-82
2024/02/26 07:18:19;;;;;;;;;7.25;7.25;;;;;15.27;76.59;100184.22;146619;624;46020;-82
2024/02/26 07:21:13;;;;;;;;;8.25;7.50;;;;;14.81;77.37;100108.28;146619;695;46013;-79
2024/02/26 07:24:17;;;;;;;;;6.50;6.50;;;;;15.24;75.20;100188.50;146622;569;46021;-79
2024/02/26 07:27:21;;;;;;;;;11.75;10.50;;;;;15.29;75.93;100190.34;146617;648;46014;-80
2024/02/26 07:30:26;;;;;;;;;10.50;9.00;;;;;15.17;72.53;100152.66;146621;621;46021;-78
2024/02/26 07:33:27;;;;;;;;;7.75;5.75;;;;;15.36;67.85;100184.44;146617;596;46913;-81
2024/02/26 07:36:21;;;;;;;;;5.25;5.25;;;;;15.36;65.00;100180.09;146621;676;46010;-79
2024/02/26 07:39:16;;;;;;;;;10.00;7.25;;;;;15.42;68.56;100182.84;146615;713;46016;-80
2024/02/26 07:42:11;;;;;;;;;20.50;17.00;;;;;15.45;68.74;100164.62;146618;570;47020;-81
2024/02/26 07:45:05;;;;;;;;;3.75;3.50;;;;;15.43;61.89;100175.87;146617;566;46012;-78
2024/02/26 07:48:13;;;;;;;;;5.00;4.50;;;;;15.48;62.31;100190.81;146614;623;47029;-85
2024/02/26 07:51:09;;;;;;;;;4.00;3.00;;;;;15.51;62.97;100183.88;146619;574;46017;-79
2024/02/26 07:54:05;;;;;;;;;4.50;2.00;;;;;15.58;63.22;100186.69;146622;666;46010;-81
2024/02/26 07:57:17;;;;;;;;;0.00;0.00;;;;;15.64;64.14;100183.31;146620;598;46016;-77
2024/02/26 08:00:23;;;;;;;;;0.67;0.00;;;;;15.58;62.36;100202.34;146623;595;46021;-79
2024/02/26 08:03:27;;;;;;;;;4.67;1.00;;;;;15.58;60.48;100197.13;146620;684;46033;-80
2024/02/26 08:06:22;;;;;;;;;2.00;0.67;;;;;15.62;62.05;100201.56;146621;572;47010;-79
2024/02/26 08:09:17;;;;;;;;;1.67;0.00;;;;;15.65;60.70;100191.19;146618;613;46016;-79
2024/02/26 08:12:13;;;;;;;;;5.50;3.50;;;;;15.72;61.73;100199.19;146622;630;47012;-85
2024/02/26 08:15:10;;;;;;;;;6.50;4.00;;;;;15.78;61.58;100196.72;146617;564;47014;-77
2024/02/26 08:18:22;;;;;;;;;0.33;0.00;;;;;15.78;60.96;100201.94;146624;588;46010;-72
2024/02/26 08:21:29;;;;;;;;;4.25;2.00;;;;;15.86;62.24;100197.78;146617;587;46012;-76
2024/02/26 08:24:29;;;;;;;;;6.50;2.00;;;;;15.96;61.90;100210.19;146617;667;47012;-74
2024/02/26 08:27:31;;;;;;;;;14.75;10.50;;;;;15.98;60.50;100218.03;146617;592;46012;-73
2024/02/26 08:30:30;;;;;;;;;8.50;8.50;;;;;15.97;61.34;100221.53;146617;600;46020;-73
2024/02/26 08:33:27;;;;;;;;;8.75;7.50;;;;;15.89;60.94;100226.59;146618;681;46012;-71
2024/02/26 08:36:19;;;;;;;;;4.67;2.33;;;;;15.84;61.40;100221.25;146619;595;47011;-72
2024/02/26 08:39:14;;;;;;;;;3.75;3.75;;;;;15.84;61.77;100238.69;146616;608;46016;-71
2024/02/26 08:42:24;;;;;;;;;5.00;4.33;;;;;15.87;61.76;100234.41;146624;601;46010;-73
2024/02/26 08:45:16;;;;;;;;;1.00;0.00;;;;;15.94;61.10;100223.22;146617;569;46016;-74
2024/02/26 08:48:21;;;;;;;;;4.67;3.00;;;;;16.06;61.63;100230.44;146624;579;46010;-72
2024/02/26 08:51:22;;;;;;;;;5.25;5.25;;;;;16.14;62.88;100226.25;146619;570;46013;-72
2024/02/26 08:54:28;;;;;;;;;3.33;1.00;;;;;16.09;63.52;100237.47;146618;578;46020;-72
2024/02/26 08:57:38;;;;;;;;;3.33;1.67;;;;;16.01;65.64;100232.09;146619;587;46012;-72
2024/02/26 09:00:38;;;;;;;;;8.25;8.00;;;;;15.98;64.28;100236.34;146623;594;46010;-73
2024/02/26 09:03:34;;;;;;;;;10.50;6.75;;;;;15.92;65.12;100238.00;146614;611;48012;-71
2024/02/26 09:06:27;;;;;;;;;3.33;1.00;;;;;15.79;65.43;100248.13;146622;655;46020;-73
2024/02/26 09:09:26;;;;;;;;;10.50;7.00;;;;;15.64;67.42;100257.37;146615;617;47012;-71
2024/02/26 09:12:24;;;;;;;;;3.67;1.00;;;;;15.55;67.86;100254.56;146621;653;46020;-72
2024/02/26 09:15:17;;;;;;;;;6.25;4.00;;;;;13.75;69.00;99943.91;146619;608;46913;-72
2024/02/26 09:18:19;;;;;;;;;3.33;2.00;;;;;15.45;70.02;100240.41;146621;583;46020;-71
2024/02/26 09:21:16;;;;;;;;;5.67;2.00;;;;;15.60;70.66;100245.06;146618;622;47017;-73
2024/02/26 09:24:35;;;;;;;;;20.25;17.50;;;;;15.90;69.57;100255.38;146621;570;46010;-72
2024/02/26 09:27:35;;;;;;;;;4.75;3.00;;;;;16.30;71.17;100258.84;146615;632;46914;-75
2024/02/26 09:30:46;;;;;;;;;11.25;10.00;;;;;16.74;68.71;100255.34;146620;564;46010;-73
2024/02/26 09:33:43;;;;;;;;;1.25;1.25;;;;;17.02;65.67;100255.00;146618;701;46012;-72
2024/02/26 09:36:53;;;;;;;;;7.25;4.75;;;;;17.26;66.60;100251.94;146617;596;46012;-73
2024/02/26 09:39:51;;;;;;;;;3.33;2.00;;;;;17.61;68.17;100255.97;146618;566;46016;-73
2024/02/26 09:42:51;;;;;;;;;3.00;2.00;;;;;18.03;69.27;100255.72;146709;572;46014;-74
2024/02/26 09:45:46;;;;;;;;;4.00;3.33;;;;;18.35;66.00;100256.16;146626;610;46016;-73
2024/02/26 09:49:01;;;;;;;;;2.00;2.00;;;;;18.59;62.20;100258.16;146629;625;46021;-73
2024/02/26 09:52:07;;;;;;;;;7.75;6.75;;;;;18.71;61.96;100260.06;146624;648;46016;-74
2024/02/26 09:55:05;;;;;;;;;1.00;0.00;;;;;18.85;63.08;100260.25;146630;607;46028;-73
2024/02/26 09:58:13;;;;;;;;;4.00;2.00;;;;;19.05;62.22;100268.31;146625;570;46017;-74
2024/02/26 10:01:11;;;;;;;;;4.33;3.33;;;;;19.18;60.58;100253.53;146629;589;46020;-73
2024/02/26 10:04:12;;;;;;;;;8.25;7.00;;;;;19.17;60.42;100247.41;146626;599;45916;-74
2024/02/26 10:07:26;;;;;;;;;3.33;3.00;;;;;19.14;61.08;100244.75;146628;640;46012;-74
2024/02/26 10:10:21;;;;;;;;;3.67;2.33;;;;;19.27;60.99;100245.72;146622;593;46016;-73
2024/02/26 10:13:14;;;;;;;;;4.50;3.00;;;;;19.34;58.25;100230.00;146711;564;46014;-73
2024/02/26 10:16:15;;;;;;;;;2.00;2.00;;;;;19.58;60.08;100231.06;146621;618;47016;-73
2024/02/26 10:19:16;;;;;;;;;9.50;9.50;;;;;19.91;58.13;100240.06;146631;612;46021;-72
2024/02/26 10:22:17;;;;;;;;;4.00;3.00;;;;;20.03;59.31;100237.47;146624;579;46016;-74
2024/02/26 10:25:31;;;;;;;;;6.67;5.67;;;;;20.16;58.10;100206.84;146631;627;46010;-73
2024/02/26 10:28:17;;;;;;;;;4.00;2.00;;;;;18.26;53.45;99956.88;146714;566;46022;-72
2024/02/26 10:31:10;;;;;;;;;7.00;3.67;;;;;19.41;55.71;100227.41;146617;576;47033;-73
2024/02/26 10:34:05;;;;;;;;;4.67;1.00;;;;;19.08;54.69;100221.03;146620;657;46020;-72
2024/02/26 10:37:12;;;;;;;;;3.33;1.00;;;;;18.76;55.82;100216.37;146614;610;46016;-74
2024/02/26 10:40:20;;;;;;;;;3.67;2.00;;;;;18.67;58.72;100218.88;146621;566;47010;-73
2024/02/26 10:43:29;;;;;;;;;4.00;1.33;;;;;18.85;56.37;100210.34;146613;587;47016;-71
2024/02/26 10:46:29;;;;;;;;;4.00;1.67;;;;;19.19;57.80;100205.34;146616;570;48010;-75
2024/02/26 10:49:34;;;;;;;;;2.00;2.00;;;;;19.51;56.96;100202.97;146618;569;45916;-75
2024/02/26 10:52:46;;;;;;;;;15.75;15.75;;;;;19.80;57.53;100206.66;146621;569;45020;-73
2024/02/26 10:55:56;;;;;;;;;4.33;2.00;;;;;20.22;56.56;100189.31;146607;582;47014;-73
2024/02/26 10:58:57;;;;;;;;;2.33;1.00;;;;;20.68;56.20;100193.84;146618;657;47010;-72
2024/02/26 11:02:03;;;;;;;;;3.00;1.00;;;;;20.91;51.37;100188.63;146613;664;46017;-70
2024/02/26 11:05:08;;;;;;;;;0.00;0.00;;;;;21.05;51.07;100178.94;146615;605;46029;-72
2024/02/26 11:08:06;;;;;;;;;5.33;4.67;;;;;21.25;54.73;100160.50;146616;641;46017;-74
2024/02/26 11:11:05;;;;;;;;;6.75;3.75;;;;;21.49;54.11;100174.53;146617;681;46020;-74
2024/02/26 11:14:04;;;;;;;;;3.33;2.00;;;;;21.60;53.18;100191.22;146612;608;46911;-73
2024/02/26 11:17:05;;;;;;;;;3.33;2.33;;;;;21.42;55.84;100158.72;146615;564;47011;-72
2024/02/26 11:20:15;;;;;;;;;2.67;2.00;;;;;21.17;51.46;100155.22;146613;587;46916;-69
2024/02/26 11:23:12;;;;;;;;;2.00;0.00;;;;;20.75;53.43;100174.56;146617;575;46020;-71
2024/02/26 11:26:14;;;;;;;;;2.00;2.00;;;;;20.53;54.95;100168.38;146615;568;47012;-73
2024/02/26 11:29:12;;;;;;;;;2.33;2.00;;;;;20.56;54.01;100176.28;146623;566;46023;-72
2024/02/26 11:32:25;;;;;;;;;2.67;2.00;;;;;19.07;53.22;99928.50;146710;564;46022;-74
2024/02/26 11:35:25;;;;;;;;;5.33;3.67;;;;;20.35;53.24;100184.09;146627;585;46016;-72
2024/02/26 11:38:31;;;;;;;;;2.67;0.33;;;;;20.05;54.79;100175.22;146630;573;46010;-72
2024/02/26 11:41:29;;;;;;;;;3.67;2.00;;;;;19.77;51.31;100175.09;146625;584;46016;-72
2024/02/26 11:45:00;;;;;;;;;7.67;6.33;;;;;19.76;54.13;100168.06;146631;600;47022;-72
2024/02/26 11:47:47;;;;;;;;;4.00;3.00;;;;;19.84;50.28;100170.72;146703;570;46022;-72
2024/02/26 11:50:52;;;;;;;;;0.00;0.00;;;;;19.98;49.39;100173.44;146620;599;46016;-72
2024/02/26 11:53:53;;;;;;;;;2.67;1.67;;;;;20.11;50.76;100163.84;146625;586;47010;-72
2024/02/26 11:56:49;;;;;;;;;1.33;0.33;;;;;20.09;47.97;100174.34;146617;662;46016;-74
2024/02/26 11:59:56;;;;;;;;;1.00;1.00;;;;;19.90;50.29;100169.88;146621;586;46021;-73
2024/02/26 12:03:10;;;;;;;;;3.00;1.00;;;;;19.51;51.40;100169.66;146618;579;46016;-73
2024/02/26 12:06:28;;;;;;;;;2.33;1.00;;;;;19.09;52.29;100180.75;146710;569;46023;-75
2024/02/26 12:09:44;;;;;;;;;3.67;2.00;;;;;18.63;53.74;100167.19;146619;635;47016;-76
2024/02/26 12:12:49;;;;;;;;;2.00;2.00;;;;;18.34;52.57;100170.38;146622;576;46021;-72
2024/02/26 12:16:14;;;;;;;;;8.33;7.00;;;;;18.02;52.96;100192.75;146615;599;46028;-71
2024/02/26 12:19:22;;;;;;;;;5.25;4.75;;;;;17.66;57.59;100204.47;146622;618;46020;-76
2024/02/26 12:22:28;;;;;;;;;2.33;1.67;;;;;17.27;58.79;100190.81;146618;628;46917;-72
2024/02/26 12:25:27;;;;;;;;;0.00;0.00;;;;;17.07;61.73;100189.59;146621;575;46012;-73
2024/02/26 12:28:28;;;;;;;;;0.00;0.00;;;;;16.98;62.90;100187.72;146617;578;46017;-73
2024/02/26 12:31:20;;;;;;;;;2.00;0.00;;;;;17.00;64.70;100188.63;146620;668;46020;-73
2024/02/26 12:34:17;;;;;;;;;0.00;0.00;;;;;17.05;65.00;100191.31;146616;622;46917;-73
2024/02/26 12:37:23;;;;;;;;;4.33;3.00;;;;;17.12;64.49;100197.53;146624;630;46020;-73
2024/02/26 12:40:40;;;;;;;;;5.00;4.00;;;;;13.73;62.26;99608.62;146618;596;46012;-73
2024/02/26 12:43:39;;;;;;;;;5.50;4.25;;;;;17.26;63.83;100190.81;146619;582;46021;-73
2024/02/26 12:46:43;;;;;;;;;9.00;5.67;;;;;17.37;62.56;100194.44;146617;642;46016;-71
2024/02/26 12:49:41;;;;;;;;;3.33;1.67;;;;;17.47;62.11;100193.72;146623;623;47010;-75
2024/02/26 12:52:48;;;;;;;;;0.00;0.00;;;;;17.54;63.13;100199.97;146617;581;46017;-74
2024/02/26 12:56:03;;;;;;;;;1.67;1.00;;;;;17.54;62.23;100186.84;146621;624;47020;-74
2024/02/26 12:59:14;;;;;;;;;2.00;2.00;;;;;17.43;62.76;100196.28;146616;596;46016;-75
2024/02/26 13:02:14;;;;;;;;;6.00;4.67;;;;;17.36;62.69;100200.56;146623;654;46020;-72
2024/02/26 13:05:12;;;;;;;;;4.33;4.33;;;;;17.23;64.11;100219.56;146617;576;47016;-73
2024/02/26 13:08:09;;;;;;;;;6.33;4.67;;;;;17.05;64.23;100207.91;146626;569;47010;-71
2024/02/26 13:10:53;;;;;;;;;8.50;5.50;;;;;16.87;64.74;100202.38;146710;566;46014;-73
2024/02/26 13:13:46;;;;;;;;;3.00;3.00;;;;;16.77;65.81;100198.72;146623;648;46016;-72
2024/02/26 13:17:19;;;;;;;;;11.00;9.00;;;;;16.81;65.81;100195.28;146627;602;47011;-72
2024/02/26 13:20:45;;;;;;;;;13.25;11.00;;;;;16.90;66.44;100198.94;146622;658;46016;-71
2024/02/26 13:23:46;;;;;;;;;9.00;8.00;;;;;16.97;69.08;100211.25;146626;592;46021;-71
2024/02/26 13:26:48;;;;;;;;;;;;;;;;;;;;;
2024/02/26 13:29:44;;;;;;;;;11.50;9.00;;;;;17.06;68.70;100229.75;146629;682;46020;-72
2024/02/26 13:32:47;;;;;;;;;5.33;5.00;;;;;17.11;68.12;100225.47;146626;570;46913;-72
2024/02/26 13:35:49;;;;;;;;;7.00;5.33;;;;;17.21;68.42;100234.38;146633;633;46010;-70
2024/02/26 13:38:44;;;;;;;;;6.00;5.00;;;;;17.29;69.33;100230.16;146622;631;46017;-72
2024/02/26 13:41:38;;;;;;;;;12.75;9.75;;;;;17.24;69.77;100222.19;146626;563;46020;-72
2024/02/26 13:44:36;;;;;;;;;12.00;9.75;;;;;17.24;69.25;100237.03;146626;638;46014;-74
2024/02/26 13:47:42;;;;;;;;;3.00;3.00;;;;;17.15;68.02;100237.78;146631;572;46011;-74
2024/02/26 13:50:42;;;;;;;;;9.67;8.33;;;;;17.01;67.21;100253.25;146622;668;46913;-73
2024/02/26 13:53:54;;;;;;;;;4.00;3.00;;;;;16.85;66.93;100270.44;146628;591;46021;-72
2024/02/26 13:56:53;;;;;;;;;6.67;3.00;;;;;16.71;67.04;100298.03;146622;646;46016;-70
2024/02/26 13:59:50;;;;;;;;;7.25;4.75;;;;;16.60;67.14;100294.31;146622;585;46020;-70
2024/02/26 14:02:48;;;;;;;;;7.00;5.00;;;;;15.02;68.34;100025.25;146625;573;46017;-71
2024/02/26 14:05:53;;;;;;;;;11.25;8.75;;;;;16.44;70.55;100280.06;146629;578;46010;-71
2024/02/26 14:08:49;;;;;;;;;8.00;6.00;;;;;16.35;70.23;100275.53;146621;675;47012;-70